Airfield :
LOGIN :

Register | Disclaimer

   EN    FR    IT 

 










Legend :    VFR   Marginal VFR   IFR   Intensive IFR   Very Intensive IFR
Visi :
Ceiling :
>= 8 km
>= 3000ft
5 to 8 km
1000 to 3000 ft
1500m to 5 km
500 to 1000 ft
800 to 1500m
200 to 500 ft
< 800m
< 200 ft
Symbols :   Thunderstorms  Fog  Heavy snow  Heavy precipitations  Wind > 20 kt
SIGMETs :     Misc.  Thunderstorms  Icing  Turbulence  Mountain Waves  Volcanic Ashes






- Airport Elevation : 1708 ft
- IATA code : SJJ


LQSA - Sarajevo

CURRENT METAR :
  • 172300Z 13002KT CAVOK 09/09 Q1020

EXPIRED METARs :
  • 172200Z VRB02KT CAVOK 09/09 Q1020
  • 172100Z VRB02KT CAVOK 10/10 Q1020
  • 172030Z VRB02KT CAVOK 10/10 Q1020 NOSIG

TAF TAF LQSA
Valid from the 17 at 18:00 until the 18 at 18:00 UTC


171700Z 1718/1818 VRB02KT CAVOK TX22/1813Z TN06/1804Z
BECMG 1802/1804 3000 BR
TEMPO 1804/1808 0400 FG BKN002
BECMG 1809/1811 CAVOK



MET'MAP, your aeronautical weather chart ! - Copyright ORBIFLY December 2007 - Disclaimer

ORBIFLY MET'MAP TEAM :

Programming & Development : Alexandra Zaïnal
Concept & Development : Baudouin d'Aumeries
Co-Development & Prog : Marc-Olivier Méhu
Technical & hardware support : Manuel Goepfert

Contact : metmap@orbifly.com




SOURCES & CREDITS :

   NOAA